createdAt,value
2023-04-27T00:01:13.866Z,8.40
2023-04-27T00:03:41.334Z,8.40
2023-04-27T00:06:09.138Z,8.40
2023-04-27T00:08:35.941Z,8.40
2023-04-27T00:11:02.793Z,8.30
2023-04-27T00:13:29.498Z,8.30
2023-04-27T00:15:56.435Z,8.30
2023-04-27T00:18:23.153Z,8.20
2023-04-27T00:20:50.095Z,8.20
2023-04-27T00:23:16.867Z,8.20
2023-04-27T00:25:43.531Z,8.20
2023-04-27T00:28:10.307Z,8.20
2023-04-27T00:30:37.158Z,8.10
2023-04-27T00:33:04.044Z,7.90
2023-04-27T00:35:32.103Z,7.90
2023-04-27T00:37:58.839Z,8.00
2023-04-27T00:40:25.594Z,8.00
2023-04-27T00:42:52.300Z,8.10
2023-04-27T00:45:18.998Z,8.10
2023-04-27T00:47:46.289Z,8.10
2023-04-27T00:50:13.125Z,8.10
2023-04-27T00:52:40.753Z,8.00
2023-04-27T00:55:08.371Z,7.90
2023-04-27T00:57:35.742Z,7.90
2023-04-27T01:00:06.611Z,7.90
2023-04-27T01:02:33.707Z,8.00
2023-04-27T01:05:02.017Z,8.00
2023-04-27T01:07:29.284Z,8.00
2023-04-27T01:09:56.343Z,8.00
2023-04-27T01:12:23.087Z,7.90
2023-04-27T01:14:49.773Z,7.90
2023-04-27T01:17:18.302Z,7.90
2023-04-27T01:19:45.163Z,7.70
2023-04-27T01:22:11.842Z,7.70
2023-04-27T01:24:38.581Z,7.50
2023-04-27T01:27:05.495Z,7.50
2023-04-27T01:29:32.340Z,7.60
2023-04-27T01:31:59.103Z,7.60
2023-04-27T01:34:25.831Z,7.60
2023-04-27T01:36:52.549Z,7.60
2023-04-27T01:39:19.260Z,7.60
2023-04-27T01:41:46.192Z,7.60
2023-04-27T01:44:12.867Z,7.60
2023-04-27T01:46:39.752Z,7.50
2023-04-27T01:49:06.491Z,7.50
2023-04-27T01:51:33.217Z,7.60
2023-04-27T01:53:59.936Z,7.50
2023-04-27T01:56:26.701Z,7.50
2023-04-27T01:58:53.998Z,7.70
2023-04-27T02:01:20.844Z,7.50
2023-04-27T02:03:47.883Z,7.50
2023-04-27T02:06:14.809Z,7.50
2023-04-27T02:08:41.598Z,7.60
2023-04-27T02:11:08.376Z,7.60
2023-04-27T02:13:35.055Z,7.50
2023-04-27T02:16:05.222Z,7.50
2023-04-27T02:18:33.721Z,7.50
2023-04-27T02:21:00.751Z,7.50
2023-04-27T02:23:27.612Z,7.40
2023-04-27T02:25:54.318Z,7.40
2023-04-27T02:28:21.049Z,7.40
2023-04-27T02:30:48.196Z,7.50
2023-04-27T02:33:14.883Z,7.50
2023-04-27T02:35:41.776Z,7.40
2023-04-27T02:38:08.555Z,7.50
2023-04-27T02:40:35.374Z,7.50
2023-04-27T02:43:02.138Z,7.50
2023-04-27T02:45:29.708Z,7.50
2023-04-27T02:47:56.903Z,7.50
2023-04-27T02:50:23.597Z,7.50
2023-04-27T02:52:50.394Z,7.50
2023-04-27T02:55:17.489Z,7.50
2023-04-27T02:57:44.492Z,7.40
2023-04-27T03:00:12.119Z,7.30
2023-04-27T03:02:38.936Z,7.30
2023-04-27T03:05:06.860Z,7.30
2023-04-27T03:07:33.589Z,7.40
2023-04-27T03:10:00.335Z,7.30
2023-04-27T03:12:27.105Z,7.00
2023-04-27T03:14:53.852Z,7.10
2023-04-27T03:17:20.694Z,7.20
2023-04-27T03:19:49.236Z,7.30
2023-04-27T03:22:16.114Z,7.30
2023-04-27T03:24:43.068Z,7.30
2023-04-27T03:27:10.014Z,7.20
2023-04-27T03:29:36.692Z,7.10
2023-04-27T03:32:04.534Z,7.20
2023-04-27T03:34:31.823Z,7.30
2023-04-27T03:36:58.591Z,7.40
2023-04-27T03:39:25.287Z,7.50
2023-04-27T03:41:51.944Z,7.60
2023-04-27T03:44:18.579Z,7.60
2023-04-27T03:46:45.410Z,7.50
2023-04-27T03:49:12.223Z,7.60
2023-04-27T03:51:42.271Z,7.70
2023-04-27T03:54:09.980Z,7.60
2023-04-27T03:56:37.230Z,7.60
2023-04-27T03:59:07.029Z,7.70
2023-04-27T04:01:37.174Z,7.70
2023-04-27T04:04:04.027Z,7.60
2023-04-27T04:06:31.723Z,7.60
2023-04-27T04:08:58.456Z,7.60
2023-04-27T04:11:26.031Z,7.50
2023-04-27T04:13:52.708Z,7.60
2023-04-27T04:16:19.435Z,7.60
2023-04-27T04:18:46.376Z,7.60
2023-04-27T04:21:13.032Z,7.60
2023-04-27T04:23:41.209Z,7.70
2023-04-27T04:26:08.961Z,7.70
2023-04-27T04:28:36.071Z,7.80
2023-04-27T04:31:03.067Z,7.70
2023-04-27T04:33:29.737Z,7.80
2023-04-27T04:35:56.420Z,7.70
2023-04-27T04:38:23.805Z,7.70
2023-04-27T04:40:51.180Z,7.70
2023-04-27T04:43:17.970Z,7.70
2023-04-27T04:45:44.643Z,7.60
2023-04-27T04:48:11.528Z,7.60
2023-04-27T04:50:39.530Z,7.40
2023-04-27T04:53:06.535Z,7.40
2023-04-27T04:55:33.350Z,7.50
2023-04-27T04:58:00.643Z,7.60
2023-04-27T05:00:27.429Z,7.70
2023-04-27T05:02:54.249Z,7.80
2023-04-27T05:05:21.337Z,7.80
2023-04-27T05:07:48.031Z,7.90
2023-04-27T05:10:14.804Z,7.90
2023-04-27T05:12:41.506Z,8.00
2023-04-27T05:15:08.583Z,8.10
2023-04-27T05:17:35.713Z,8.10
2023-04-27T05:20:04.962Z,8.10
2023-04-27T05:22:31.764Z,8.20
2023-04-27T05:24:59.034Z,8.20
2023-04-27T05:27:25.728Z,8.20
2023-04-27T05:29:52.370Z,8.20
2023-04-27T05:32:19.088Z,8.30
2023-04-27T05:34:47.984Z,8.40
2023-04-27T05:37:16.046Z,8.50
2023-04-27T05:39:42.676Z,8.50
2023-04-27T05:42:09.433Z,8.60
2023-04-27T05:44:36.272Z,8.70
2023-04-27T05:47:02.954Z,8.70
2023-04-27T05:49:29.735Z,8.70
2023-04-27T05:51:56.434Z,8.70
2023-04-27T05:54:23.119Z,8.80
2023-04-27T05:56:51.152Z,8.80
2023-04-27T05:59:17.910Z,8.90
2023-04-27T06:01:44.590Z,9.00
2023-04-27T06:04:11.349Z,9.00
2023-04-27T06:06:38.366Z,9.10
2023-04-27T06:09:05.150Z,9.10
2023-04-27T06:11:31.801Z,9.20
2023-04-27T06:13:58.502Z,9.20
2023-04-27T06:16:25.402Z,9.20
2023-04-27T06:18:52.250Z,9.30
2023-04-27T06:21:18.962Z,9.30
2023-04-27T06:23:45.657Z,9.40
2023-04-27T06:26:12.362Z,9.50
2023-04-27T06:28:39.151Z,9.60
2023-04-27T06:31:06.386Z,9.60
2023-04-27T06:33:33.540Z,9.70
2023-04-27T06:36:01.288Z,9.80
2023-04-27T06:38:28.362Z,9.90
2023-04-27T06:40:55.119Z,9.90
2023-04-27T06:43:22.392Z,10.00
2023-04-27T06:45:49.135Z,10.20
2023-04-27T06:48:16.984Z,10.30
2023-04-27T06:50:44.468Z,10.40
2023-04-27T06:53:12.304Z,10.50
2023-04-27T06:55:40.415Z,10.40
2023-04-27T06:58:09.332Z,10.50
2023-04-27T07:00:36.254Z,10.50
2023-04-27T07:03:02.935Z,10.50
2023-04-27T07:05:29.756Z,10.50
2023-04-27T07:07:56.533Z,10.40
2023-04-27T07:10:23.260Z,10.40
2023-04-27T07:12:50.117Z,10.40
2023-04-27T07:15:16.893Z,10.50
2023-04-27T07:17:43.637Z,10.60
2023-04-27T07:20:10.541Z,10.70
2023-04-27T07:22:37.208Z,10.80
2023-04-27T07:25:05.324Z,10.90
2023-04-27T07:27:33.028Z,10.90
2023-04-27T07:29:59.806Z,10.90
2023-04-27T07:32:26.837Z,10.80
2023-04-27T07:34:55.773Z,10.90
2023-04-27T07:37:23.243Z,11.00
2023-04-27T07:39:54.418Z,10.90
2023-04-27T07:42:25.273Z,11.10
2023-04-27T07:44:52.448Z,11.30
2023-04-27T07:47:19.413Z,11.40
2023-04-27T07:49:47.205Z,11.60
2023-04-27T07:52:14.433Z,11.80
2023-04-27T07:54:41.158Z,11.80
2023-04-27T07:57:14.187Z,11.70
2023-04-27T07:59:41.066Z,11.80
2023-04-27T08:02:19.056Z,11.90
2023-04-27T08:04:47.316Z,11.80
2023-04-27T08:07:16.621Z,11.60
2023-04-27T08:09:44.076Z,11.60
2023-04-27T08:12:10.807Z,11.50
2023-04-27T08:14:37.527Z,11.50
2023-04-27T08:17:04.441Z,11.60
2023-04-27T08:19:31.202Z,11.70
2023-04-27T08:21:57.872Z,11.70
2023-04-27T08:24:24.701Z,11.80
2023-04-27T08:26:51.433Z,11.80
2023-04-27T08:29:27.182Z,11.80
2023-04-27T08:31:58.288Z,11.70
2023-04-27T08:34:25.667Z,11.60
2023-04-27T08:36:52.684Z,11.90
2023-04-27T08:39:19.573Z,11.90
2023-04-27T08:41:46.395Z,12.00
2023-04-27T08:44:13.353Z,12.10
2023-04-27T08:46:40.974Z,12.10
2023-04-27T08:49:08.103Z,12.00
2023-04-27T08:51:35.302Z,12.10
2023-04-27T08:54:02.575Z,12.50
2023-04-27T08:56:30.687Z,12.30
2023-04-27T08:58:58.545Z,12.30
2023-04-27T09:01:28.976Z,12.50
2023-04-27T09:03:57.210Z,12.60
2023-04-27T09:06:32.068Z,12.90
2023-04-27T09:08:59.259Z,12.90
2023-04-27T09:11:36.997Z,12.90
2023-04-27T09:14:16.717Z,13.00
2023-04-27T09:16:44.580Z,13.10
2023-04-27T09:19:12.139Z,13.30
2023-04-27T09:21:38.955Z,13.40
2023-04-27T09:24:13.543Z,13.40
2023-04-27T09:26:42.779Z,13.40
2023-04-27T09:29:09.601Z,13.30
2023-04-27T09:31:36.448Z,13.30
2023-04-27T09:34:04.056Z,13.20
2023-04-27T09:36:32.545Z,13.10
2023-04-27T09:39:04.879Z,13.00
2023-04-27T09:41:33.374Z,13.10
2023-04-27T09:44:00.766Z,13.10
2023-04-27T09:46:29.663Z,13.20
2023-04-27T09:48:57.483Z,13.30
2023-04-27T09:51:24.308Z,13.40
2023-04-27T09:53:54.160Z,13.60
2023-04-27T09:56:41.879Z,13.70
2023-04-27T09:59:46.204Z,13.70
2023-04-27T10:02:24.721Z,14.00
2023-04-27T10:05:13.985Z,13.80
2023-04-27T10:07:41.337Z,14.20
2023-04-27T10:10:20.347Z,14.40
2023-04-27T10:13:02.210Z,14.30
2023-04-27T10:15:30.071Z,14.40
2023-04-27T10:18:03.471Z,14.50
2023-04-27T10:20:32.667Z,14.60
2023-04-27T10:23:00.488Z,14.60
2023-04-27T10:25:29.500Z,14.70
2023-04-27T10:27:58.105Z,14.80
2023-04-27T10:30:26.757Z,15.10
2023-04-27T10:32:58.701Z,15.00
2023-04-27T10:35:35.870Z,15.10
2023-04-27T10:38:16.301Z,14.90
2023-04-27T10:40:45.843Z,15.20
2023-04-27T10:43:17.693Z,15.50
2023-04-27T10:45:45.429Z,15.20
2023-04-27T10:48:16.129Z,15.10
2023-04-27T10:50:44.860Z,15.00
2023-04-27T10:53:11.673Z,14.80
2023-04-27T10:55:38.587Z,15.20
2023-04-27T10:58:05.640Z,15.20
2023-04-27T11:00:38.572Z,15.30
2023-04-27T11:03:20.549Z,15.40
2023-04-27T11:05:49.113Z,15.80
2023-04-27T11:08:17.911Z,16.10
2023-04-27T11:10:47.383Z,16.30
2023-04-27T11:13:20.262Z,16.60
2023-04-27T11:15:49.335Z,16.50
2023-04-27T11:18:18.190Z,16.60
2023-04-27T11:20:48.691Z,16.40
2023-04-27T11:23:29.019Z,16.50
2023-04-27T11:25:56.736Z,16.60
2023-04-27T11:28:24.388Z,16.20
2023-04-27T11:31:00.910Z,16.50
2023-04-27T11:33:28.245Z,16.50
2023-04-27T11:35:56.412Z,16.20
2023-04-27T11:38:23.735Z,16.10
2023-04-27T11:41:01.977Z,16.10
2023-04-27T11:43:29.029Z,16.20
2023-04-27T11:45:56.733Z,15.90
2023-04-27T11:48:24.054Z,15.80
2023-04-27T11:50:53.274Z,15.60
2023-04-27T11:53:31.425Z,15.00
2023-04-27T11:56:01.136Z,15.00
2023-04-27T11:58:29.341Z,15.20
2023-04-27T12:00:58.088Z,15.50
2023-04-27T12:03:26.198Z,15.60
2023-04-27T12:05:53.462Z,15.70
2023-04-27T12:08:20.588Z,16.10
2023-04-27T12:10:47.427Z,16.50
2023-04-27T12:13:14.386Z,16.80
2023-04-27T12:15:42.383Z,16.60
2023-04-27T12:18:09.913Z,16.60
2023-04-27T12:20:36.833Z,16.20
2023-04-27T12:23:03.990Z,15.60
2023-04-27T12:25:30.706Z,15.50
2023-04-27T12:27:57.804Z,15.90
2023-04-27T12:30:24.680Z,16.30
2023-04-27T12:32:51.953Z,16.70
2023-04-27T12:35:18.713Z,16.90
2023-04-27T12:37:45.394Z,17.50
2023-04-27T12:40:12.596Z,18.00
2023-04-27T12:42:39.312Z,18.10
2023-04-27T12:45:06.512Z,18.30
2023-04-27T12:47:50.352Z,18.40
2023-04-27T12:50:21.631Z,18.30
2023-04-27T12:52:48.535Z,17.80
2023-04-27T12:55:28.899Z,17.50
2023-04-27T12:57:58.745Z,17.60
2023-04-27T13:00:25.563Z,18.10
2023-04-27T13:02:52.899Z,18.00
2023-04-27T13:05:20.298Z,17.70
2023-04-27T13:07:47.101Z,17.60
2023-04-27T13:10:13.781Z,17.10
2023-04-27T13:12:40.869Z,16.80
2023-04-27T13:15:08.364Z,16.70
2023-04-27T13:17:35.068Z,16.90
2023-04-27T13:20:01.861Z,17.70
2023-04-27T13:22:28.647Z,18.80
2023-04-27T13:24:56.386Z,19.90
2023-04-27T13:27:25.189Z,20.10
2023-04-27T13:29:52.201Z,19.50
2023-04-27T13:32:19.010Z,19.90
2023-04-27T13:34:45.936Z,20.40
2023-04-27T13:37:12.665Z,20.90
2023-04-27T13:39:39.414Z,21.80
2023-04-27T13:42:06.502Z,23.10
2023-04-27T13:44:33.667Z,25.10
2023-04-27T13:47:00.580Z,24.60
2023-04-27T13:49:27.292Z,23.10
2023-04-27T13:51:54.159Z,23.80
2023-04-27T13:54:21.584Z,25.10
2023-04-27T13:56:48.457Z,25.10
2023-04-27T13:59:16.743Z,26.00
2023-04-27T14:01:43.706Z,27.30
2023-04-27T14:04:10.740Z,27.10
2023-04-27T14:06:37.658Z,26.50
2023-04-27T14:09:04.839Z,25.60
2023-04-27T14:11:35.436Z,25.20
2023-04-27T14:14:06.727Z,24.90
2023-04-27T14:16:33.529Z,24.80
2023-04-27T14:19:00.454Z,25.00
2023-04-27T14:21:28.075Z,26.00
2023-04-27T14:23:54.750Z,26.90
2023-04-27T14:26:21.989Z,26.00
2023-04-27T14:28:48.690Z,26.30
2023-04-27T14:31:16.191Z,26.60
2023-04-27T14:33:42.951Z,27.40
2023-04-27T14:36:10.460Z,27.40
2023-04-27T14:38:37.146Z,26.90
2023-04-27T14:41:03.879Z,25.70
2023-04-27T14:43:31.812Z,24.40
2023-04-27T14:46:05.066Z,22.60
2023-04-27T14:48:46.246Z,21.30
2023-04-27T14:51:16.671Z,20.40
2023-04-27T14:53:44.121Z,20.00
2023-04-27T14:56:11.408Z,19.60
2023-04-27T14:58:38.652Z,19.40
2023-04-27T15:01:06.187Z,19.20
2023-04-27T15:03:33.419Z,19.10
2023-04-27T15:06:01.800Z,18.90
2023-04-27T15:08:28.941Z,18.70
2023-04-27T15:10:59.674Z,18.50
2023-04-27T15:13:27.073Z,18.50
2023-04-27T15:15:58.373Z,18.60
2023-04-27T15:18:25.882Z,19.20
2023-04-27T15:20:52.963Z,19.90
2023-04-27T15:23:20.843Z,21.30
2023-04-27T15:25:48.614Z,22.80
2023-04-27T15:28:16.596Z,24.20
2023-04-27T15:30:44.200Z,24.20
2023-04-27T15:33:11.986Z,23.30
2023-04-27T15:35:40.342Z,21.80
2023-04-27T15:38:12.629Z,20.80
2023-04-27T15:40:39.636Z,20.30
2023-04-27T15:43:06.753Z,20.10
2023-04-27T15:45:33.738Z,19.60
2023-04-27T15:48:00.704Z,19.30
2023-04-27T15:50:27.535Z,19.10
2023-04-27T15:52:54.199Z,19.20
2023-04-27T15:55:22.172Z,19.30
2023-04-27T15:57:48.836Z,19.50
2023-04-27T16:00:17.048Z,19.50
2023-04-27T16:02:43.997Z,19.30
2023-04-27T16:05:10.953Z,19.10
2023-04-27T16:07:39.846Z,18.80
2023-04-27T16:10:07.846Z,18.90
2023-04-27T16:12:34.791Z,19.20
2023-04-27T16:15:01.537Z,19.40
2023-04-27T16:17:31.249Z,19.30
2023-04-27T16:19:58.207Z,19.00
2023-04-27T16:22:25.031Z,18.90
2023-04-27T16:24:51.953Z,19.20
2023-04-27T16:27:20.670Z,19.90
2023-04-27T16:29:47.720Z,20.60
2023-04-27T16:32:14.614Z,20.90
2023-04-27T16:34:41.600Z,20.20
2023-04-27T16:37:08.637Z,20.10
2023-04-27T16:39:35.795Z,20.00
2023-04-27T16:42:02.925Z,19.90
2023-04-27T16:44:29.614Z,19.80
2023-04-27T16:46:56.370Z,19.20
2023-04-27T16:49:23.028Z,19.30
2023-04-27T16:51:49.825Z,19.20
2023-04-27T16:54:16.650Z,19.10
2023-04-27T16:56:43.533Z,19.10
2023-04-27T16:59:12.568Z,19.20
2023-04-27T17:01:40.011Z,19.10
2023-04-27T17:04:06.781Z,19.30
2023-04-27T17:06:34.684Z,19.10
2023-04-27T17:09:01.567Z,18.80
2023-04-27T17:11:28.460Z,18.50
2023-04-27T17:13:55.199Z,18.10
2023-04-27T17:16:22.209Z,17.90
2023-04-27T17:18:49.033Z,17.70
2023-04-27T17:21:17.160Z,17.50
2023-04-27T17:23:46.664Z,17.50
2023-04-27T17:26:15.966Z,17.40
2023-04-27T17:28:42.700Z,17.40
2023-04-27T17:31:09.555Z,17.40
2023-04-27T17:33:36.402Z,17.80
2023-04-27T17:36:03.274Z,17.30
2023-04-27T17:38:29.933Z,17.20
2023-04-27T17:40:56.923Z,17.00
2023-04-27T17:43:23.562Z,17.00
2023-04-27T17:45:50.496Z,16.90
2023-04-27T17:48:17.659Z,16.70
2023-04-27T17:50:44.466Z,16.60
2023-04-27T17:53:11.208Z,16.30
2023-04-27T17:55:37.901Z,16.10
2023-04-27T17:58:06.280Z,15.90
2023-04-27T18:00:33.257Z,15.80
2023-04-27T18:03:00.346Z,15.80
2023-04-27T18:05:27.411Z,15.70
2023-04-27T18:07:54.048Z,15.50
2023-04-27T18:10:20.792Z,15.70
2023-04-27T18:12:47.656Z,15.10
2023-04-27T18:15:14.340Z,14.90
2023-04-27T18:17:41.042Z,14.80
2023-04-27T18:20:10.578Z,14.70
2023-04-27T18:22:41.167Z,14.60
2023-04-27T18:25:11.337Z,14.40
2023-04-27T18:27:38.126Z,14.30
2023-04-27T18:30:06.177Z,14.20
2023-04-27T18:32:34.657Z,14.10
2023-04-27T18:35:02.518Z,14.00
2023-04-27T18:37:29.294Z,13.90
2023-04-27T18:39:56.040Z,13.80
2023-04-27T18:42:23.430Z,13.60
2023-04-27T18:44:54.744Z,13.60
2023-04-27T18:47:21.776Z,13.50
2023-04-27T18:49:48.567Z,13.60
2023-04-27T18:52:15.321Z,13.50
2023-04-27T18:54:42.260Z,13.40
2023-04-27T18:57:08.993Z,13.40
2023-04-27T18:59:38.606Z,13.30
2023-04-27T19:02:07.042Z,13.20
2023-04-27T19:04:34.399Z,13.10
2023-04-27T19:07:02.039Z,13.00
2023-04-27T19:09:29.017Z,12.90
2023-04-27T19:12:02.352Z,12.80
2023-04-27T19:14:31.099Z,12.70
2023-04-27T19:16:57.907Z,12.70
2023-04-27T19:19:25.816Z,12.70
2023-04-27T19:21:52.681Z,12.70
2023-04-27T19:24:19.592Z,12.50
2023-04-27T19:26:47.653Z,12.50
2023-04-27T19:29:14.729Z,12.50
2023-04-27T19:31:41.704Z,12.40
2023-04-27T19:34:08.537Z,12.40
2023-04-27T19:36:35.188Z,12.30
2023-04-27T19:39:01.853Z,12.20
2023-04-27T19:41:28.557Z,12.20
2023-04-27T19:43:55.459Z,12.20
2023-04-27T19:46:22.176Z,12.10
2023-04-27T19:48:48.878Z,12.10
2023-04-27T19:51:15.714Z,12.10
2023-04-27T19:53:42.435Z,12.20
2023-04-27T19:56:09.120Z,12.10
2023-04-27T19:58:35.995Z,12.10
2023-04-27T20:01:03.907Z,12.10
2023-04-27T20:03:31.007Z,12.10
2023-04-27T20:05:58.304Z,12.00
2023-04-27T20:08:25.195Z,12.00
2023-04-27T20:10:52.158Z,12.00
2023-04-27T20:13:18.936Z,12.00
2023-04-27T20:15:46.725Z,12.00
2023-04-27T20:18:13.447Z,11.90
2023-04-27T20:20:41.968Z,11.90
2023-04-27T20:23:08.787Z,11.80
2023-04-27T20:25:35.505Z,11.80
2023-04-27T20:28:02.272Z,11.80
2023-04-27T20:30:29.066Z,11.70
2023-04-27T20:32:56.458Z,11.70
2023-04-27T20:35:24.133Z,11.60
2023-04-27T20:37:51.973Z,11.60
2023-04-27T20:40:19.030Z,11.60
2023-04-27T20:42:46.018Z,11.70
2023-04-27T20:45:13.228Z,11.60
2023-04-27T20:47:40.553Z,11.50
2023-04-27T20:50:07.902Z,11.50
2023-04-27T20:52:35.070Z,11.50
2023-04-27T20:55:03.051Z,11.50
2023-04-27T20:57:29.753Z,11.60
2023-04-27T20:59:56.435Z,11.60
2023-04-27T21:02:23.187Z,11.50
2023-04-27T21:04:50.041Z,11.50
2023-04-27T21:07:16.746Z,11.60
2023-04-27T21:09:43.406Z,11.50
2023-04-27T21:12:10.373Z,11.50
2023-04-27T21:14:37.451Z,11.40
2023-04-27T21:17:04.162Z,11.30
2023-04-27T21:19:30.974Z,11.30
2023-04-27T21:21:57.619Z,11.20
2023-04-27T21:24:24.872Z,11.20
2023-04-27T21:26:51.843Z,11.20
2023-04-27T21:29:18.536Z,11.20
2023-04-27T21:31:45.351Z,11.20
2023-04-27T21:34:12.052Z,11.10
2023-04-27T21:36:38.921Z,11.10
2023-04-27T21:39:06.320Z,11.00
2023-04-27T21:41:34.765Z,10.90
2023-04-27T21:44:01.714Z,10.90
2023-04-27T21:46:28.583Z,10.80
2023-04-27T21:48:55.381Z,10.80
2023-04-27T21:51:22.064Z,10.90
2023-04-27T21:53:48.736Z,10.90
2023-04-27T21:56:15.568Z,10.90
2023-04-27T21:58:42.209Z,10.80
2023-04-27T22:01:08.929Z,10.70
2023-04-27T22:03:35.685Z,10.70
2023-04-27T22:06:02.486Z,10.70
2023-04-27T22:08:29.192Z,10.60
2023-04-27T22:10:56.260Z,10.60
2023-04-27T22:13:23.024Z,10.60
2023-04-27T22:15:49.776Z,10.60
2023-04-27T22:18:16.495Z,10.50
2023-04-27T22:20:43.547Z,10.50
2023-04-27T22:23:10.906Z,10.50
2023-04-27T22:25:37.876Z,10.40
2023-04-27T22:28:04.792Z,10.50
2023-04-27T22:30:31.531Z,10.50
2023-04-27T22:32:58.317Z,10.50
2023-04-27T22:35:27.709Z,10.50
2023-04-27T22:37:59.322Z,10.50
2023-04-27T22:40:26.365Z,10.40
2023-04-27T22:42:53.828Z,10.30
2023-04-27T22:45:21.268Z,10.40
2023-04-27T22:47:49.211Z,10.40
2023-04-27T22:50:16.701Z,10.40
2023-04-27T22:52:43.634Z,10.40
2023-04-27T22:55:11.560Z,10.40
2023-04-27T22:57:39.232Z,10.50
2023-04-27T23:00:08.950Z,10.60
2023-04-27T23:02:36.034Z,10.60
2023-04-27T23:05:03.788Z,10.70
2023-04-27T23:07:30.470Z,10.70
2023-04-27T23:09:57.123Z,10.70
2023-04-27T23:12:26.912Z,10.70
2023-04-27T23:14:53.582Z,10.70
2023-04-27T23:17:22.639Z,10.70
2023-04-27T23:19:49.680Z,10.80
2023-04-27T23:22:16.603Z,10.80
2023-04-27T23:24:43.267Z,10.80
2023-04-27T23:27:09.942Z,10.70
2023-04-27T23:29:36.749Z,10.70
2023-04-27T23:32:04.361Z,10.70
2023-04-27T23:34:33.904Z,10.70
2023-04-27T23:37:00.823Z,10.70
2023-04-27T23:39:28.398Z,10.70
2023-04-27T23:41:55.220Z,10.70
2023-04-27T23:44:22.118Z,10.80
2023-04-27T23:46:48.793Z,10.80
2023-04-27T23:49:15.612Z,10.90
2023-04-27T23:51:42.281Z,10.90
2023-04-27T23:54:09.033Z,10.90
2023-04-27T23:56:36.647Z,10.90
2023-04-27T23:59:03.503Z,10.90
